sensor_id;sensor_type;location;lat;lon;timestamp;temperature;humidity
8709;DHT22;4391;48.678;9.280;2022-08-21T00:01:33;13.90;99.90
8709;DHT22;4391;48.678;9.280;2022-08-21T00:04:04;13.80;99.90
8709;DHT22;4391;48.678;9.280;2022-08-21T00:06:31;13.80;99.90
8709;DHT22;4391;48.678;9.280;2022-08-21T00:08:59;13.70;99.90
8709;DHT22;4391;48.678;9.280;2022-08-21T00:11:26;13.70;99.90
8709;DHT22;4391;48.678;9.280;2022-08-21T00:13:53;13.60;99.90
8709;DHT22;4391;48.678;9.280;2022-08-21T00:16:19;13.50;99.90
8709;DHT22;4391;48.678;9.280;2022-08-21T00:18:48;13.50;99.90
8709;DHT22;4391;48.678;9.280;2022-08-21T00:21:14;13.40;99.90
8709;DHT22;4391;48.678;9.280;2022-08-21T00:23:42;13.30;99.90
8709;DHT22;4391;48.678;9.280;2022-08-21T00:26:09;13.30;99.90
8709;DHT22;4391;48.678;9.280;2022-08-21T00:28:36;13.30;99.90
8709;DHT22;4391;48.678;9.280;2022-08-21T00:31:03;13.20;99.90
8709;DHT22;4391;48.678;9.280;2022-08-21T00:33:31;13.20;99.90
8709;DHT22;4391;48.678;9.280;2022-08-21T00:35:59;13.10;99.90
8709;DHT22;4391;48.678;9.280;2022-08-21T00:38:26;13.10;99.90
8709;DHT22;4391;48.678;9.280;2022-08-21T00:40:55;13.00;99.90
8709;DHT22;4391;48.678;9.280;2022-08-21T00:43:24;13.00;99.90
8709;DHT22;4391;48.678;9.280;2022-08-21T00:45:51;12.90;99.90
8709;DHT22;4391;48.678;9.280;2022-08-21T00:48:19;12.90;99.90
8709;DHT22;4391;48.678;9.280;2022-08-21T00:50:50;12.90;99.90
8709;DHT22;4391;48.678;9.280;2022-08-21T00:53:20;12.80;99.90
8709;DHT22;4391;48.678;9.280;2022-08-21T00:55:48;12.80;99.90
8709;DHT22;4391;48.678;9.280;2022-08-21T00:58:15;12.80;99.90
8709;DHT22;4391;48.678;9.280;2022-08-21T01:00:46;12.80;99.90
8709;DHT22;4391;48.678;9.280;2022-08-21T01:03:16;12.80;99.90
8709;DHT22;4391;48.678;9.280;2022-08-21T01:05:44;12.80;99.90
8709;DHT22;4391;48.678;9.280;2022-08-21T01:08:12;12.70;99.90
8709;DHT22;4391;48.678;9.280;2022-08-21T01:10:40;12.70;99.90
8709;DHT22;4391;48.678;9.280;2022-08-21T01:13:09;12.70;99.90
8709;DHT22;4391;48.678;9.280;2022-08-21T01:15:41;12.70;99.90
8709;DHT22;4391;48.678;9.280;2022-08-21T01:18:10;12.60;99.90
8709;DHT22;4391;48.678;9.280;2022-08-21T01:20:40;12.60;99.90
8709;DHT22;4391;48.678;9.280;2022-08-21T01:23:09;12.50;99.90
8709;DHT22;4391;48.678;9.280;2022-08-21T01:25:36;12.50;99.90
8709;DHT22;4391;48.678;9.280;2022-08-21T01:28:08;12.40;99.90
8709;DHT22;4391;48.678;9.280;2022-08-21T01:30:37;12.40;99.90
8709;DHT22;4391;48.678;9.280;2022-08-21T01:33:05;12.40;99.90
8709;DHT22;4391;48.678;9.280;2022-08-21T01:35:31;12.40;99.90
8709;DHT22;4391;48.678;9.280;2022-08-21T01:37:58;12.30;99.90
8709;DHT22;4391;48.678;9.280;2022-08-21T01:40:26;12.30;99.90
8709;DHT22;4391;48.678;9.280;2022-08-21T01:42:53;12.30;99.90
8709;DHT22;4391;48.678;9.280;2022-08-21T01:45:20;12.20;99.90
8709;DHT22;4391;48.678;9.280;2022-08-21T01:47:47;12.20;99.90
8709;DHT22;4391;48.678;9.280;2022-08-21T01:50:16;12.30;99.90
8709;DHT22;4391;48.678;9.280;2022-08-21T01:52:44;12.20;99.90
8709;DHT22;4391;48.678;9.280;2022-08-21T01:55:12;12.10;99.90
8709;DHT22;4391;48.678;9.280;2022-08-21T01:57:41;12.10;99.90
8709;DHT22;4391;48.678;9.280;2022-08-21T02:00:11;12.10;99.90
8709;DHT22;4391;48.678;9.280;2022-08-21T02:02:38;12.10;99.90
8709;DHT22;4391;48.678;9.280;2022-08-21T02:05:06;12.00;99.90
8709;DHT22;4391;48.678;9.280;2022-08-21T02:07:36;12.00;99.90
8709;DHT22;4391;48.678;9.280;2022-08-21T02:10:06;12.00;99.90
8709;DHT22;4391;48.678;9.280;2022-08-21T02:12:33;12.00;99.90
8709;DHT22;4391;48.678;9.280;2022-08-21T02:15:02;11.90;99.90
8709;DHT22;4391;48.678;9.280;2022-08-21T02:17:37;11.90;99.90
8709;DHT22;4391;48.678;9.280;2022-08-21T02:20:05;11.90;99.90
8709;DHT22;4391;48.678;9.280;2022-08-21T02:22:31;11.90;99.90
8709;DHT22;4391;48.678;9.280;2022-08-21T02:24:58;11.90;99.90
8709;DHT22;4391;48.678;9.280;2022-08-21T02:27:25;11.90;99.90
8709;DHT22;4391;48.678;9.280;2022-08-21T02:29:52;11.90;99.90
8709;DHT22;4391;48.678;9.280;2022-08-21T02:32:20;11.90;99.90
8709;DHT22;4391;48.678;9.280;2022-08-21T02:34:47;11.80;99.90
8709;DHT22;4391;48.678;9.280;2022-08-21T02:37:14;11.80;99.90
8709;DHT22;4391;48.678;9.280;2022-08-21T02:39:41;11.70;99.90
8709;DHT22;4391;48.678;9.280;2022-08-21T02:42:07;11.70;99.90
8709;DHT22;4391;48.678;9.280;2022-08-21T02:44:34;11.70;99.90
8709;DHT22;4391;48.678;9.280;2022-08-21T02:47:01;11.70;99.90
8709;DHT22;4391;48.678;9.280;2022-08-21T02:49:29;11.70;99.90
8709;DHT22;4391;48.678;9.280;2022-08-21T02:51:55;11.60;99.90
8709;DHT22;4391;48.678;9.280;2022-08-21T02:54:22;11.60;99.90
8709;DHT22;4391;48.678;9.280;2022-08-21T02:56:49;11.60;99.90
8709;DHT22;4391;48.678;9.280;2022-08-21T02:59:16;11.60;99.90
8709;DHT22;4391;48.678;9.280;2022-08-21T03:01:43;11.60;99.90
8709;DHT22;4391;48.678;9.280;2022-08-21T03:04:10;11.60;99.90
8709;DHT22;4391;48.678;9.280;2022-08-21T03:06:38;11.60;99.90
8709;DHT22;4391;48.678;9.280;2022-08-21T03:09:04;11.60;99.90
8709;DHT22;4391;48.678;9.280;2022-08-21T03:11:31;11.70;99.90
8709;DHT22;4391;48.678;9.280;2022-08-21T03:13:58;11.60;99.90
8709;DHT22;4391;48.678;9.280;2022-08-21T03:16:25;11.60;99.90
8709;DHT22;4391;48.678;9.280;2022-08-21T03:18:51;11.70;99.90
8709;DHT22;4391;48.678;9.280;2022-08-21T03:21:18;11.70;99.90
8709;DHT22;4391;48.678;9.280;2022-08-21T03:23:46;11.70;99.90
8709;DHT22;4391;48.678;9.280;2022-08-21T03:26:13;11.70;99.90
8709;DHT22;4391;48.678;9.280;2022-08-21T03:28:40;11.60;99.90
8709;DHT22;4391;48.678;9.280;2022-08-21T03:31:06;11.60;99.90
8709;DHT22;4391;48.678;9.280;2022-08-21T03:33:34;11.60;99.90
8709;DHT22;4391;48.678;9.280;2022-08-21T03:36:05;11.60;99.90
8709;DHT22;4391;48.678;9.280;2022-08-21T03:38:33;11.60;99.90
8709;DHT22;4391;48.678;9.280;2022-08-21T03:41:03;11.60;99.90
8709;DHT22;4391;48.678;9.280;2022-08-21T03:43:31;11.50;99.90
8709;DHT22;4391;48.678;9.280;2022-08-21T03:45:58;11.50;99.90
8709;DHT22;4391;48.678;9.280;2022-08-21T03:48:24;11.40;99.90
8709;DHT22;4391;48.678;9.280;2022-08-21T03:50:52;11.40;99.90
8709;DHT22;4391;48.678;9.280;2022-08-21T03:53:20;11.40;99.90
8709;DHT22;4391;48.678;9.280;2022-08-21T03:55:48;11.40;99.90
8709;DHT22;4391;48.678;9.280;2022-08-21T03:58:19;11.40;99.90
8709;DHT22;4391;48.678;9.280;2022-08-21T04:00:46;11.30;99.90
8709;DHT22;4391;48.678;9.280;2022-08-21T04:03:14;11.30;99.90
8709;DHT22;4391;48.678;9.280;2022-08-21T04:05:41;11.30;99.90
8709;DHT22;4391;48.678;9.280;2022-08-21T04:08:08;11.30;99.90
8709;DHT22;4391;48.678;9.280;2022-08-21T04:10:37;11.40;99.90
8709;DHT22;4391;48.678;9.280;2022-08-21T04:13:05;11.40;99.90
8709;DHT22;4391;48.678;9.280;2022-08-21T04:15:33;11.30;99.90
8709;DHT22;4391;48.678;9.280;2022-08-21T04:18:01;11.30;99.90
8709;DHT22;4391;48.678;9.280;2022-08-21T04:20:28;11.20;99.90
8709;DHT22;4391;48.678;9.280;2022-08-21T04:22:54;11.20;99.90
8709;DHT22;4391;48.678;9.280;2022-08-21T04:25:23;11.20;99.90
8709;DHT22;4391;48.678;9.280;2022-08-21T04:27:51;11.20;99.90
8709;DHT22;4391;48.678;9.280;2022-08-21T04:30:18;11.20;99.90
8709;DHT22;4391;48.678;9.280;2022-08-21T04:32:48;11.20;99.90
8709;DHT22;4391;48.678;9.280;2022-08-21T04:35:17;11.20;99.90
8709;DHT22;4391;48.678;9.280;2022-08-21T04:37:45;11.20;99.90
8709;DHT22;4391;48.678;9.280;2022-08-21T04:40:14;11.20;99.90
8709;DHT22;4391;48.678;9.280;2022-08-21T04:42:43;11.30;99.90
8709;DHT22;4391;48.678;9.280;2022-08-21T04:45:16;11.20;99.90
8709;DHT22;4391;48.678;9.280;2022-08-21T04:47:47;11.20;99.90
8709;DHT22;4391;48.678;9.280;2022-08-21T04:50:14;11.20;99.90
8709;DHT22;4391;48.678;9.280;2022-08-21T04:52:41;11.20;99.90
8709;DHT22;4391;48.678;9.280;2022-08-21T04:55:08;11.20;99.90
8709;DHT22;4391;48.678;9.280;2022-08-21T04:57:35;11.30;99.90
8709;DHT22;4391;48.678;9.280;2022-08-21T05:00:04;11.40;99.90
8709;DHT22;4391;48.678;9.280;2022-08-21T05:02:32;11.40;99.90
8709;DHT22;4391;48.678;9.280;2022-08-21T05:05:00;11.50;99.90
8709;DHT22;4391;48.678;9.280;2022-08-21T05:07:29;11.50;99.90
8709;DHT22;4391;48.678;9.280;2022-08-21T05:09:56;11.60;99.90
8709;DHT22;4391;48.678;9.280;2022-08-21T05:12:23;11.60;99.90
8709;DHT22;4391;48.678;9.280;2022-08-21T05:14:50;11.80;99.90
8709;DHT22;4391;48.678;9.280;2022-08-21T05:17:17;11.70;99.90
8709;DHT22;4391;48.678;9.280;2022-08-21T05:19:43;11.80;99.90
8709;DHT22;4391;48.678;9.280;2022-08-21T05:22:19;11.90;99.90
8709;DHT22;4391;48.678;9.280;2022-08-21T05:24:45;11.90;99.90
8709;DHT22;4391;48.678;9.280;2022-08-21T05:27:12;12.00;99.90
8709;DHT22;4391;48.678;9.280;2022-08-21T05:29:39;12.10;99.90
8709;DHT22;4391;48.678;9.280;2022-08-21T05:32:08;12.20;99.90
8709;DHT22;4391;48.678;9.280;2022-08-21T05:34:36;12.30;99.90
8709;DHT22;4391;48.678;9.280;2022-08-21T05:37:03;12.40;99.90
8709;DHT22;4391;48.678;9.280;2022-08-21T05:39:32;12.50;99.90
8709;DHT22;4391;48.678;9.280;2022-08-21T05:41:58;12.50;99.90
8709;DHT22;4391;48.678;9.280;2022-08-21T05:44:25;12.60;99.90
8709;DHT22;4391;48.678;9.280;2022-08-21T05:46:52;12.70;99.90
8709;DHT22;4391;48.678;9.280;2022-08-21T05:49:19;12.80;99.90
8709;DHT22;4391;48.678;9.280;2022-08-21T05:51:46;12.90;99.90
8709;DHT22;4391;48.678;9.280;2022-08-21T05:54:12;13.10;99.90
8709;DHT22;4391;48.678;9.280;2022-08-21T05:56:40;13.10;99.90
8709;DHT22;4391;48.678;9.280;2022-08-21T05:59:10;13.20;99.90
8709;DHT22;4391;48.678;9.280;2022-08-21T06:01:38;13.30;99.90
8709;DHT22;4391;48.678;9.280;2022-08-21T06:04:05;13.40;99.90
8709;DHT22;4391;48.678;9.280;2022-08-21T06:06:33;13.50;99.90
8709;DHT22;4391;48.678;9.280;2022-08-21T06:09:00;13.70;99.90
8709;DHT22;4391;48.678;9.280;2022-08-21T06:11:27;13.80;99.90
8709;DHT22;4391;48.678;9.280;2022-08-21T06:13:55;13.90;99.90
8709;DHT22;4391;48.678;9.280;2022-08-21T06:16:22;14.10;99.90
8709;DHT22;4391;48.678;9.280;2022-08-21T06:18:49;14.30;99.90
8709;DHT22;4391;48.678;9.280;2022-08-21T06:21:16;14.40;99.90
8709;DHT22;4391;48.678;9.280;2022-08-21T06:23:43;14.60;99.90
8709;DHT22;4391;48.678;9.280;2022-08-21T06:26:12;14.80;99.90
8709;DHT22;4391;48.678;9.280;2022-08-21T06:28:40;14.90;99.90
8709;DHT22;4391;48.678;9.280;2022-08-21T06:31:13;15.10;99.90
8709;DHT22;4391;48.678;9.280;2022-08-21T06:33:43;15.10;99.90
8709;DHT22;4391;48.678;9.280;2022-08-21T06:36:10;15.30;99.90
8709;DHT22;4391;48.678;9.280;2022-08-21T06:38:37;15.40;99.90
8709;DHT22;4391;48.678;9.280;2022-08-21T06:41:05;15.50;99.90
8709;DHT22;4391;48.678;9.280;2022-08-21T06:43:32;15.60;99.90
8709;DHT22;4391;48.678;9.280;2022-08-21T06:46:00;15.70;99.90
8709;DHT22;4391;48.678;9.280;2022-08-21T06:48:28;15.90;99.90
8709;DHT22;4391;48.678;9.280;2022-08-21T06:50:58;16.10;99.90
8709;DHT22;4391;48.678;9.280;2022-08-21T06:53:25;16.10;98.50
8709;DHT22;4391;48.678;9.280;2022-08-21T06:55:52;16.30;87.10
8709;DHT22;4391;48.678;9.280;2022-08-21T06:58:19;16.40;66.00
8709;DHT22;4391;48.678;9.280;2022-08-21T07:00:49;16.60;73.20
8709;DHT22;4391;48.678;9.280;2022-08-21T07:03:19;16.70;37.30
8709;DHT22;4391;48.678;9.280;2022-08-21T07:05:47;16.80;39.20
8709;DHT22;4391;48.678;9.280;2022-08-21T07:08:14;17.00;56.10
8709;DHT22;4391;48.678;9.280;2022-08-21T07:10:42;17.10;28.40
8709;DHT22;4391;48.678;9.280;2022-08-21T07:13:08;17.30;28.10
8709;DHT22;4391;48.678;9.280;2022-08-21T07:15:35;17.40;16.00
8709;DHT22;4391;48.678;9.280;2022-08-21T07:18:02;17.50;15.00
8709;DHT22;4391;48.678;9.280;2022-08-21T07:20:30;17.70;22.00
8709;DHT22;4391;48.678;9.280;2022-08-21T07:23:01;17.80;13.00
8709;DHT22;4391;48.678;9.280;2022-08-21T07:25:29;17.90;1.00
8709;DHT22;4391;48.678;9.280;2022-08-21T07:27:56;18.00;1.00
8709;DHT22;4391;48.678;9.280;2022-08-21T07:30:27;18.20;11.20
8709;DHT22;4391;48.678;9.280;2022-08-21T07:32:54;18.40;1.00
8709;DHT22;4391;48.678;9.280;2022-08-21T07:35:22;18.60;1.00
8709;DHT22;4391;48.678;9.280;2022-08-21T07:37:53;18.70;1.00
8709;DHT22;4391;48.678;9.280;2022-08-21T07:40:21;18.90;1.00
8709;DHT22;4391;48.678;9.280;2022-08-21T07:42:48;19.10;1.00
8709;DHT22;4391;48.678;9.280;2022-08-21T07:45:18;19.30;1.00
8709;DHT22;4391;48.678;9.280;2022-08-21T07:47:45;19.50;1.00
8709;DHT22;4391;48.678;9.280;2022-08-21T07:50:13;19.60;1.00
8709;DHT22;4391;48.678;9.280;2022-08-21T07:52:41;19.80;99.90
8709;DHT22;4391;48.678;9.280;2022-08-21T07:55:10;19.70;1.00
8709;DHT22;4391;48.678;9.280;2022-08-21T07:57:41;19.90;79.50
8709;DHT22;4391;48.678;9.280;2022-08-21T08:00:11;19.80;1.00
8709;DHT22;4391;48.678;9.280;2022-08-21T08:02:39;19.80;73.40
8709;DHT22;4391;48.678;9.280;2022-08-21T08:05:09;19.80;99.90
8709;DHT22;4391;48.678;9.280;2022-08-21T08:07:38;19.90;6.10
8709;DHT22;4391;48.678;9.280;2022-08-21T08:10:06;20.10;99.90
8709;DHT22;4391;48.678;9.280;2022-08-21T08:12:34;20.30;99.90
8709;DHT22;4391;48.678;9.280;2022-08-21T08:15:03;20.60;99.90
8709;DHT22;4391;48.678;9.280;2022-08-21T08:17:33;20.80;99.90
8709;DHT22;4391;48.678;9.280;2022-08-21T08:20:00;21.00;99.90
8709;DHT22;4391;48.678;9.280;2022-08-21T08:22:28;21.20;1.00
8709;DHT22;4391;48.678;9.280;2022-08-21T08:24:56;21.50;5.20
8709;DHT22;4391;48.678;9.280;2022-08-21T08:27:25;21.70;99.90
8709;DHT22;4391;48.678;9.280;2022-08-21T08:29:51;22.00;99.90
8709;DHT22;4391;48.678;9.280;2022-08-21T08:32:20;22.10;99.90
8709;DHT22;4391;48.678;9.280;2022-08-21T08:34:50;22.20;99.90
8709;DHT22;4391;48.678;9.280;2022-08-21T08:37:18;22.40;90.90
8709;DHT22;4391;48.678;9.280;2022-08-21T08:39:46;22.60;99.90
8709;DHT22;4391;48.678;9.280;2022-08-21T08:42:15;22.90;99.90
8709;DHT22;4391;48.678;9.280;2022-08-21T08:44:43;23.20;1.00
8709;DHT22;4391;48.678;9.280;2022-08-21T08:47:13;23.40;1.00
8709;DHT22;4391;48.678;9.280;2022-08-21T08:49:47;23.70;1.00
8709;DHT22;4391;48.678;9.280;2022-08-21T08:52:19;24.10;1.00
8709;DHT22;4391;48.678;9.280;2022-08-21T08:54:51;24.20;1.00
8709;DHT22;4391;48.678;9.280;2022-08-21T08:57:22;24.20;1.00
8709;DHT22;4391;48.678;9.280;2022-08-21T08:59:50;24.50;1.00
8709;DHT22;4391;48.678;9.280;2022-08-21T09:02:18;24.80;1.00
8709;DHT22;4391;48.678;9.280;2022-08-21T09:04:49;25.20;1.00
8709;DHT22;4391;48.678;9.280;2022-08-21T09:07:22;25.70;99.90
8709;DHT22;4391;48.678;9.280;2022-08-21T09:10:03;25.90;99.90
8709;DHT22;4391;48.678;9.280;2022-08-21T09:12:39;26.20;99.90
8709;DHT22;4391;48.678;9.280;2022-08-21T09:15:17;26.60;99.90
8709;DHT22;4391;48.678;9.280;2022-08-21T09:20:52;27.30;99.90
8709;DHT22;4391;48.678;9.280;2022-08-21T09:23:31;27.40;99.90
8709;DHT22;4391;48.678;9.280;2022-08-21T09:26:06;27.50;99.90
8709;DHT22;4391;48.678;9.280;2022-08-21T09:28:36;27.30;99.90
8709;DHT22;4391;48.678;9.280;2022-08-21T09:31:06;27.50;99.90
8709;DHT22;4391;48.678;9.280;2022-08-21T09:33:33;27.90;99.90
8709;DHT22;4391;48.678;9.280;2022-08-21T09:36:02;28.40;99.90
8709;DHT22;4391;48.678;9.280;2022-08-21T09:38:33;28.60;99.90
8709;DHT22;4391;48.678;9.280;2022-08-21T09:41:02;28.70;99.90
8709;DHT22;4391;48.678;9.280;2022-08-21T09:43:31;29.10;99.90
8709;DHT22;4391;48.678;9.280;2022-08-21T09:46:07;29.30;99.90
8709;DHT22;4391;48.678;9.280;2022-08-21T09:48:44;29.50;99.90
8709;DHT22;4391;48.678;9.280;2022-08-21T09:51:14;29.50;99.90
8709;DHT22;4391;48.678;9.280;2022-08-21T09:53:45;29.90;99.90
8709;DHT22;4391;48.678;9.280;2022-08-21T09:56:27;30.20;99.90
8709;DHT22;4391;48.678;9.280;2022-08-21T09:59:19;30.40;99.90
8709;DHT22;4391;48.678;9.280;2022-08-21T10:01:48;30.60;99.90
8709;DHT22;4391;48.678;9.280;2022-08-21T10:04:20;30.60;99.90
8709;DHT22;4391;48.678;9.280;2022-08-21T10:06:49;30.90;99.90
8709;DHT22;4391;48.678;9.280;2022-08-21T10:09:18;31.20;99.90
8709;DHT22;4391;48.678;9.280;2022-08-21T10:11:51;31.70;99.90
8709;DHT22;4391;48.678;9.280;2022-08-21T10:14:38;31.80;99.90
8709;DHT22;4391;48.678;9.280;2022-08-21T10:17:12;31.90;99.90
8709;DHT22;4391;48.678;9.280;2022-08-21T10:19:48;32.10;99.90
8709;DHT22;4391;48.678;9.280;2022-08-21T10:22:30;32.40;99.90
8709;DHT22;4391;48.678;9.280;2022-08-21T10:25:08;32.80;99.90
8709;DHT22;4391;48.678;9.280;2022-08-21T10:27:43;33.10;99.90
8709;DHT22;4391;48.678;9.280;2022-08-21T10:30:17;33.50;99.90
8709;DHT22;4391;48.678;9.280;2022-08-21T10:32:57;33.80;99.90
8709;DHT22;4391;48.678;9.280;2022-08-21T10:35:30;33.90;99.90
8709;DHT22;4391;48.678;9.280;2022-08-21T10:38:20;33.50;99.90
8709;DHT22;4391;48.678;9.280;2022-08-21T10:40:59;33.10;99.90
8709;DHT22;4391;48.678;9.280;2022-08-21T10:43:36;33.00;99.90
8709;DHT22;4391;48.678;9.280;2022-08-21T10:46:14;33.10;99.90
8709;DHT22;4391;48.678;9.280;2022-08-21T10:48:46;33.90;99.90
8709;DHT22;4391;48.678;9.280;2022-08-21T10:51:18;34.70;99.90
8709;DHT22;4391;48.678;9.280;2022-08-21T10:53:59;35.30;99.90
8709;DHT22;4391;48.678;9.280;2022-08-21T10:56:29;36.00;99.90
8709;DHT22;4391;48.678;9.280;2022-08-21T10:59:04;36.10;99.90
8709;DHT22;4391;48.678;9.280;2022-08-21T11:01:39;36.70;99.90
8709;DHT22;4391;48.678;9.280;2022-08-21T11:04:12;37.20;99.90
8709;DHT22;4391;48.678;9.280;2022-08-21T11:06:48;37.70;99.90
8709;DHT22;4391;48.678;9.280;2022-08-21T11:09:19;38.00;99.90
8709;DHT22;4391;48.678;9.280;2022-08-21T11:11:48;38.40;99.90
8709;DHT22;4391;48.678;9.280;2022-08-21T11:14:22;38.30;99.90
8709;DHT22;4391;48.678;9.280;2022-08-21T11:16:56;37.90;99.90
8709;DHT22;4391;48.678;9.280;2022-08-21T11:19:28;38.40;99.90
8709;DHT22;4391;48.678;9.280;2022-08-21T11:22:00;37.90;99.90
8709;DHT22;4391;48.678;9.280;2022-08-21T11:24:35;38.50;99.90
8709;DHT22;4391;48.678;9.280;2022-08-21T11:27:09;38.20;99.90
8709;DHT22;4391;48.678;9.280;2022-08-21T11:29:41;38.10;99.90
8709;DHT22;4391;48.678;9.280;2022-08-21T11:32:27;38.90;99.90
8709;DHT22;4391;48.678;9.280;2022-08-21T11:35:02;39.10;99.90
8709;DHT22;4391;48.678;9.280;2022-08-21T11:37:45;39.60;99.90
8709;DHT22;4391;48.678;9.280;2022-08-21T11:40:24;39.80;99.90
8709;DHT22;4391;48.678;9.280;2022-08-21T11:43:02;40.70;99.90
8709;DHT22;4391;48.678;9.280;2022-08-21T11:45:45;40.80;99.90
8709;DHT22;4391;48.678;9.280;2022-08-21T11:48:28;40.80;99.90
8709;DHT22;4391;48.678;9.280;2022-08-21T11:51:05;40.40;99.90
8709;DHT22;4391;48.678;9.280;2022-08-21T11:53:42;39.90;99.90
8709;DHT22;4391;48.678;9.280;2022-08-21T11:56:21;39.40;99.90
8709;DHT22;4391;48.678;9.280;2022-08-21T11:58:53;39.30;99.90
8709;DHT22;4391;48.678;9.280;2022-08-21T12:01:24;39.40;99.90
8709;DHT22;4391;48.678;9.280;2022-08-21T12:03:56;39.20;99.90
8709;DHT22;4391;48.678;9.280;2022-08-21T12:06:34;39.90;99.90
8709;DHT22;4391;48.678;9.280;2022-08-21T12:09:04;40.80;99.90
8709;DHT22;4391;48.678;9.280;2022-08-21T12:11:32;41.70;99.90
8709;DHT22;4391;48.678;9.280;2022-08-21T12:14:15;42.00;99.90
8709;DHT22;4391;48.678;9.280;2022-08-21T12:16:43;41.60;99.90
8709;DHT22;4391;48.678;9.280;2022-08-21T12:19:12;42.10;99.90
8709;DHT22;4391;48.678;9.280;2022-08-21T12:21:49;41.80;99.90
8709;DHT22;4391;48.678;9.280;2022-08-21T12:24:19;41.40;99.90
8709;DHT22;4391;48.678;9.280;2022-08-21T12:26:53;41.70;99.90
8709;DHT22;4391;48.678;9.280;2022-08-21T12:29:26;41.40;99.90
8709;DHT22;4391;48.678;9.280;2022-08-21T12:31:58;41.30;99.90
8709;DHT22;4391;48.678;9.280;2022-08-21T12:34:32;41.30;99.90
8709;DHT22;4391;48.678;9.280;2022-08-21T12:37:02;41.90;99.90
8709;DHT22;4391;48.678;9.280;2022-08-21T12:39:33;42.50;99.90
8709;DHT22;4391;48.678;9.280;2022-08-21T12:42:08;42.90;99.90
8709;DHT22;4391;48.678;9.280;2022-08-21T12:44:44;43.50;99.90
8709;DHT22;4391;48.678;9.280;2022-08-21T12:47:17;43.70;99.90
8709;DHT22;4391;48.678;9.280;2022-08-21T12:49:53;43.60;99.90
8709;DHT22;4391;48.678;9.280;2022-08-21T12:52:24;43.90;99.90
8709;DHT22;4391;48.678;9.280;2022-08-21T12:54:54;43.60;99.90
8709;DHT22;4391;48.678;9.280;2022-08-21T12:57:24;44.10;99.90
8709;DHT22;4391;48.678;9.280;2022-08-21T12:59:55;43.90;99.90
8709;DHT22;4391;48.678;9.280;2022-08-21T13:02:25;43.80;99.90
8709;DHT22;4391;48.678;9.280;2022-08-21T13:04:53;43.80;99.90
8709;DHT22;4391;48.678;9.280;2022-08-21T13:07:27;43.60;99.90
8709;DHT22;4391;48.678;9.280;2022-08-21T13:09:56;44.20;99.90
8709;DHT22;4391;48.678;9.280;2022-08-21T13:12:25;44.60;99.90
8709;DHT22;4391;48.678;9.280;2022-08-21T13:14:56;44.70;99.90
8709;DHT22;4391;48.678;9.280;2022-08-21T13:17:25;44.70;99.90
8709;DHT22;4391;48.678;9.280;2022-08-21T13:19:54;44.50;99.90
8709;DHT22;4391;48.678;9.280;2022-08-21T13:22:23;44.40;99.90
8709;DHT22;4391;48.678;9.280;2022-08-21T13:24:50;44.20;99.90
8709;DHT22;4391;48.678;9.280;2022-08-21T13:27:23;44.20;99.90
8709;DHT22;4391;48.678;9.280;2022-08-21T13:30:04;44.20;99.90
8709;DHT22;4391;48.678;9.280;2022-08-21T13:32:33;43.80;99.90
8709;DHT22;4391;48.678;9.280;2022-08-21T13:35:08;43.50;99.90
8709;DHT22;4391;48.678;9.280;2022-08-21T13:37:36;43.20;99.90
8709;DHT22;4391;48.678;9.280;2022-08-21T13:40:10;43.60;99.90
8709;DHT22;4391;48.678;9.280;2022-08-21T13:42:40;43.40;99.90
8709;DHT22;4391;48.678;9.280;2022-08-21T13:45:14;43.60;99.90
8709;DHT22;4391;48.678;9.280;2022-08-21T13:47:42;43.80;99.90
8709;DHT22;4391;48.678;9.280;2022-08-21T13:50:13;44.30;99.90
8709;DHT22;4391;48.678;9.280;2022-08-21T13:52:53;43.60;99.90
8709;DHT22;4391;48.678;9.280;2022-08-21T13:55:24;43.50;99.90
8709;DHT22;4391;48.678;9.280;2022-08-21T13:57:59;43.60;99.90
8709;DHT22;4391;48.678;9.280;2022-08-21T14:00:30;43.90;99.90
8709;DHT22;4391;48.678;9.280;2022-08-21T14:03:03;44.20;99.90
8709;DHT22;4391;48.678;9.280;2022-08-21T14:05:33;44.10;99.90
8709;DHT22;4391;48.678;9.280;2022-08-21T14:08:04;43.90;99.90
8709;DHT22;4391;48.678;9.280;2022-08-21T14:10:35;43.40;99.90
8709;DHT22;4391;48.678;9.280;2022-08-21T14:13:05;43.10;99.90
8709;DHT22;4391;48.678;9.280;2022-08-21T14:15:35;43.40;99.90
8709;DHT22;4391;48.678;9.280;2022-08-21T14:18:09;43.10;99.90
8709;DHT22;4391;48.678;9.280;2022-08-21T14:20:39;43.10;99.90
8709;DHT22;4391;48.678;9.280;2022-08-21T14:23:06;42.80;99.90
8709;DHT22;4391;48.678;9.280;2022-08-21T14:25:39;42.80;99.90
8709;DHT22;4391;48.678;9.280;2022-08-21T14:28:19;42.80;99.90
8709;DHT22;4391;48.678;9.280;2022-08-21T14:30:52;42.70;99.90
8709;DHT22;4391;48.678;9.280;2022-08-21T14:33:25;42.90;99.90
8709;DHT22;4391;48.678;9.280;2022-08-21T14:35:51;42.90;99.90
8709;DHT22;4391;48.678;9.280;2022-08-21T14:38:20;42.70;99.90
8709;DHT22;4391;48.678;9.280;2022-08-21T14:40:49;42.70;99.90
8709;DHT22;4391;48.678;9.280;2022-08-21T14:43:16;42.60;99.90
8709;DHT22;4391;48.678;9.280;2022-08-21T14:45:43;42.30;99.90
8709;DHT22;4391;48.678;9.280;2022-08-21T14:48:11;42.10;99.90
8709;DHT22;4391;48.678;9.280;2022-08-21T14:50:39;41.70;99.90
8709;DHT22;4391;48.678;9.280;2022-08-21T14:53:07;41.70;99.90
8709;DHT22;4391;48.678;9.280;2022-08-21T14:55:34;41.60;99.90
8709;DHT22;4391;48.678;9.280;2022-08-21T14:58:22;41.30;99.90
8709;DHT22;4391;48.678;9.280;2022-08-21T15:00:50;41.30;99.90
8709;DHT22;4391;48.678;9.280;2022-08-21T15:03:19;41.30;99.90
8709;DHT22;4391;48.678;9.280;2022-08-21T15:05:47;41.20;99.90
8709;DHT22;4391;48.678;9.280;2022-08-21T15:08:13;41.10;99.90
8709;DHT22;4391;48.678;9.280;2022-08-21T15:10:40;41.20;99.90
8709;DHT22;4391;48.678;9.280;2022-08-21T15:13:08;41.30;99.90
8709;DHT22;4391;48.678;9.280;2022-08-21T15:15:40;40.60;99.90
8709;DHT22;4391;48.678;9.280;2022-08-21T15:18:08;40.40;99.90
8709;DHT22;4391;48.678;9.280;2022-08-21T15:20:37;40.00;99.90
8709;DHT22;4391;48.678;9.280;2022-08-21T15:23:05;39.50;99.90
8709;DHT22;4391;48.678;9.280;2022-08-21T15:25:32;39.30;99.90
8709;DHT22;4391;48.678;9.280;2022-08-21T15:27:59;39.50;99.90
8709;DHT22;4391;48.678;9.280;2022-08-21T15:30:27;39.20;99.90
8709;DHT22;4391;48.678;9.280;2022-08-21T15:32:53;38.60;99.90
8709;DHT22;4391;48.678;9.280;2022-08-21T15:35:20;38.10;99.90
8709;DHT22;4391;48.678;9.280;2022-08-21T15:37:48;37.40;99.90
8709;DHT22;4391;48.678;9.280;2022-08-21T15:40:15;35.70;96.50
8709;DHT22;4391;48.678;9.280;2022-08-21T15:42:43;34.30;90.50
8709;DHT22;4391;48.678;9.280;2022-08-21T15:45:10;32.90;80.60
8709;DHT22;4391;48.678;9.280;2022-08-21T15:47:39;32.10;76.30
8709;DHT22;4391;48.678;9.280;2022-08-21T15:50:09;31.40;70.90
8709;DHT22;4391;48.678;9.280;2022-08-21T15:52:36;30.80;68.80
8709;DHT22;4391;48.678;9.280;2022-08-21T15:55:06;30.30;65.30
8709;DHT22;4391;48.678;9.280;2022-08-21T15:57:34;29.60;61.80
8709;DHT22;4391;48.678;9.280;2022-08-21T16:00:05;29.30;61.10
8709;DHT22;4391;48.678;9.280;2022-08-21T16:02:34;29.10;61.60
8709;DHT22;4391;48.678;9.280;2022-08-21T16:05:03;29.00;61.30
8709;DHT22;4391;48.678;9.280;2022-08-21T16:07:30;28.50;59.10
8709;DHT22;4391;48.678;9.280;2022-08-21T16:09:57;28.20;58.10
8709;DHT22;4391;48.678;9.280;2022-08-21T16:12:27;28.00;57.30
8709;DHT22;4391;48.678;9.280;2022-08-21T16:14:57;27.80;58.40
8709;DHT22;4391;48.678;9.280;2022-08-21T16:17:27;27.70;59.10
8709;DHT22;4391;48.678;9.280;2022-08-21T16:19:55;27.60;59.40
8709;DHT22;4391;48.678;9.280;2022-08-21T16:22:21;27.60;60.40